Time;durP1;ratioP1;P1;durP2;ratioP2;P2;SDS_P1;SDS_P2;PMS_P1;PMS_P2;Temp;Humidity;BMP_temperature;BMP_pressure;BME280_temperature;BME280_humidity;BME280_pressure;Samples;Min_cycle;Max_cycle;Signal;HPM_P1;HPM_P2
2023/06/17 00:00:28;;;;;;;19.23;12.27;;;;;;;;;;5154177;27;20043;-76
2023/06/17 00:02:54;;;;;;;17.92;12.18;;;;;;;;;;5154499;27;20133;-76
2023/06/17 00:05:21;;;;;;;21.08;13.27;;;;;;;;;;5119040;27;20130;-76
2023/06/17 00:07:47;;;;;;;24.45;12.88;;;;;;;;;;5154112;27;20065;-75
2023/06/17 00:10:13;;;;;;;16.27;12.18;;;;;;;;;;5154138;27;20055;-75
2023/06/17 00:12:39;;;;;;;17.05;11.70;;;;;;;;;;5154562;27;20087;-75
2023/06/17 00:15:06;;;;;;;19.65;11.38;;;;;;;;;;5135481;27;20454;-75
2023/06/17 00:17:32;;;;;;;19.17;13.18;;;;;;;;;;5154365;27;20046;-75
2023/06/17 00:20:00;;;;;;;20.00;12.93;;;;;;;;;;5134637;27;20443;-75
2023/06/17 00:22:29;;;;;;;17.77;12.60;;;;;;;;;;5154329;27;20133;-75
2023/06/17 00:24:56;;;;;;;18.95;12.30;;;;;;;;;;5152467;27;20509;-75
2023/06/17 00:27:22;;;;;;;19.13;13.27;;;;;;;;;;5135834;27;20039;-75
2023/06/17 00:29:48;;;;;;;22.48;13.02;;;;;;;;;;5134959;27;20039;-75
2023/06/17 00:32:14;;;;;;;22.23;14.07;;;;;;;;;;5154298;27;20038;-75
2023/06/17 00:34:40;;;;;;;21.60;13.55;;;;;;;;;;5153574;27;20096;-75
2023/06/17 00:37:06;;;;;;;20.80;13.27;;;;;;;;;;5154031;27;20042;-75
2023/06/17 00:39:32;;;;;;;25.48;14.00;;;;;;;;;;5153758;27;20053;-75
2023/06/17 00:41:58;;;;;;;21.90;13.90;;;;;;;;;;5135378;27;20045;-75
2023/06/17 00:44:24;;;;;;;18.75;13.40;;;;;;;;;;5154211;27;20043;-75
2023/06/17 00:46:51;;;;;;;22.25;13.00;;;;;;;;;;5154132;27;20042;-76
2023/06/17 00:49:18;;;;;;;24.65;13.73;;;;;;;;;;5153935;27;20114;-77
2023/06/17 00:51:44;;;;;;;18.42;12.63;;;;;;;;;;5153983;27;20447;-76
2023/06/17 00:54:12;;;;;;;18.45;13.20;;;;;;;;;;5153476;27;20180;-76
2023/06/17 00:56:40;;;;;;;21.48;13.98;;;;;;;;;;5153850;27;20107;-76
2023/06/17 00:59:06;;;;;;;22.95;14.38;;;;;;;;;;5152565;27;20447;-76
2023/06/17 01:01:35;;;;;;;18.88;13.45;;;;;;;;;;5134377;27;20053;-76
2023/06/17 01:04:02;;;;;;;25.15;15.02;;;;;;;;;;5153783;27;20043;-76
2023/06/17 01:06:37;;;;;;;21.40;14.43;;;;;;;;;;5135294;27;20045;-76
2023/06/17 01:09:06;;;;;;;21.30;14.80;;;;;;;;;;5131570;28;20062;-75
2023/06/17 01:11:34;;;;;;;25.33;14.15;;;;;;;;;;5131613;28;20047;-77
2023/06/17 01:14:00;;;;;;;22.30;14.70;;;;;;;;;;5132913;27;20400;-76
2023/06/17 01:16:27;;;;;;;23.13;14.70;;;;;;;;;;5132961;27;20423;-76
2023/06/17 01:18:53;;;;;;;24.15;13.95;;;;;;;;;;5133125;27;20373;-76
2023/06/17 01:21:22;;;;;;;23.65;13.55;;;;;;;;;;5131328;28;20047;-76
2023/06/17 01:23:52;;;;;;;21.85;13.20;;;;;;;;;;5131885;27;20039;-76
2023/06/17 01:26:19;;;;;;;19.48;13.77;;;;;;;;;;5132228;28;20039;-76
2023/06/17 01:28:46;;;;;;;25.58;14.13;;;;;;;;;;5131264;28;20444;-76
2023/06/17 01:31:12;;;;;;;24.00;14.93;;;;;;;;;;5135198;27;20047;-76
2023/06/17 01:33:41;;;;;;;21.48;14.93;;;;;;;;;;5136514;27;20479;-76
2023/06/17 01:36:15;;;;;;;24.00;15.60;;;;;;;;;;5136633;27;20416;-76
2023/06/17 01:38:43;;;;;;;21.38;14.30;;;;;;;;;;5136554;27;20046;-76
2023/06/17 01:41:10;;;;;;;23.30;14.25;;;;;;;;;;5135922;27;20093;-76
2023/06/17 01:43:37;;;;;;;22.65;14.10;;;;;;;;;;5136280;27;20478;-76
2023/06/17 01:46:03;;;;;;;25.65;15.20;;;;;;;;;;5136500;27;20081;-76
2023/06/17 01:48:29;;;;;;;23.65;15.15;;;;;;;;;;5135399;27;20051;-76
2023/06/17 01:50:55;;;;;;;23.42;15.73;;;;;;;;;;5135829;27;20087;-76
2023/06/17 01:53:24;;;;;;;22.42;15.77;;;;;;;;;;5136255;27;20035;-76
2023/06/17 01:55:50;;;;;;;27.23;17.05;;;;;;;;;;5133941;27;20047;-76
2023/06/17 01:58:16;;;;;;;22.92;15.38;;;;;;;;;;5136299;27;20501;-76
2023/06/17 02:00:43;;;;;;;24.65;15.55;;;;;;;;;;5133338;27;20042;-76
2023/06/17 02:03:09;;;;;;;26.77;16.90;;;;;;;;;;5134707;27;20050;-76
2023/06/17 02:05:35;;;;;;;23.60;15.95;;;;;;;;;;5135602;27;20463;-76
2023/06/17 02:08:04;;;;;;;25.05;16.67;;;;;;;;;;5141731;27;20051;-76
2023/06/17 02:10:30;;;;;;;31.35;17.00;;;;;;;;;;5156037;27;20495;-75
2023/06/17 02:12:56;;;;;;;21.83;15.38;;;;;;;;;;5156598;27;20038;-76
2023/06/17 02:15:22;;;;;;;24.50;15.32;;;;;;;;;;5120568;27;20042;-76
2023/06/17 02:17:49;;;;;;;25.77;15.85;;;;;;;;;;5156608;27;20030;-76
2023/06/17 02:20:15;;;;;;;29.10;16.45;;;;;;;;;;5136879;27;20046;-76
2023/06/17 02:22:41;;;;;;;21.77;15.35;;;;;;;;;;5137715;27;20046;-76
2023/06/17 02:25:07;;;;;;;21.75;16.10;;;;;;;;;;5156372;27;20111;-76
2023/06/17 02:27:33;;;;;;;27.08;15.25;;;;;;;;;;5156802;27;20061;-76
2023/06/17 02:30:00;;;;;;;24.13;15.90;;;;;;;;;;5155819;27;20047;-76
2023/06/17 02:32:27;;;;;;;23.40;15.32;;;;;;;;;;5137838;27;20130;-76
2023/06/17 02:34:54;;;;;;;24.02;16.35;;;;;;;;;;5155919;27;20123;-76
2023/06/17 02:37:20;;;;;;;23.50;15.65;;;;;;;;;;5156498;27;20053;-76
2023/06/17 02:39:46;;;;;;;21.27;15.45;;;;;;;;;;5155941;27;20051;-76
2023/06/17 02:42:12;;;;;;;25.70;15.32;;;;;;;;;;5155338;27;20561;-76
2023/06/17 02:44:38;;;;;;;24.15;16.27;;;;;;;;;;5137398;27;20046;-75
2023/06/17 02:47:05;;;;;;;24.25;16.48;;;;;;;;;;5156201;27;20043;-75
2023/06/17 02:49:31;;;;;;;23.80;16.58;;;;;;;;;;5155634;27;20390;-75
2023/06/17 02:51:57;;;;;;;21.02;15.70;;;;;;;;;;5137126;27;20099;-75
2023/06/17 02:54:23;;;;;;;22.63;17.13;;;;;;;;;;5155391;27;20402;-74
2023/06/17 02:56:49;;;;;;;25.90;16.02;;;;;;;;;;5155785;27;20035;-75
2023/06/17 02:59:15;;;;;;;21.95;15.75;;;;;;;;;;5155761;27;20047;-75
2023/06/17 03:01:43;;;;;;;26.30;16.73;;;;;;;;;;5136985;27;20086;-75
2023/06/17 03:04:12;;;;;;;25.55;17.55;;;;;;;;;;5155460;27;20155;-75
2023/06/17 03:06:40;;;;;;;26.20;17.08;;;;;;;;;;5155630;27;20046;-75
2023/06/17 03:09:10;;;;;;;25.98;18.30;;;;;;;;;;5133188;27;20066;-75
2023/06/17 03:11:39;;;;;;;24.33;16.88;;;;;;;;;;5133412;27;20058;-75
2023/06/17 03:14:06;;;;;;;25.55;17.55;;;;;;;;;;5134338;27;20096;-75
2023/06/17 03:16:33;;;;;;;24.23;17.73;;;;;;;;;;5134408;27;20047;-76
2023/06/17 03:19:02;;;;;;;23.83;18.15;;;;;;;;;;5134499;27;20039;-76
2023/06/17 03:21:30;;;;;;;26.55;17.65;;;;;;;;;;5134515;27;20098;-76
2023/06/17 03:23:59;;;;;;;30.75;17.98;;;;;;;;;;5134452;27;20074;-76
2023/06/17 03:26:25;;;;;;;25.90;18.90;;;;;;;;;;5134617;27;20044;-75
2023/06/17 03:28:53;;;;;;;26.88;19.15;;;;;;;;;;5133110;27;20372;-76
2023/06/17 03:31:21;;;;;;;29.30;19.67;;;;;;;;;;5134399;27;20171;-75
2023/06/17 03:33:48;;;;;;;25.52;19.05;;;;;;;;;;5133031;27;20138;-75
2023/06/17 03:36:16;;;;;;;25.50;19.67;;;;;;;;;;5134535;27;20054;-76
2023/06/17 03:38:42;;;;;;;27.75;20.42;;;;;;;;;;5134294;27;20043;-75
2023/06/17 03:41:08;;;;;;;31.75;22.10;;;;;;;;;;5132910;27;20051;-75
2023/06/17 03:43:35;;;;;;;32.03;21.55;;;;;;;;;;5134120;27;20039;-76
2023/06/17 03:46:01;;;;;;;26.17;21.42;;;;;;;;;;5132716;27;20078;-76
2023/06/17 03:48:27;;;;;;;28.80;20.83;;;;;;;;;;5132818;27;20549;-76
2023/06/17 03:50:53;;;;;;;28.98;21.23;;;;;;;;;;5133994;27;20179;-76
2023/06/17 03:53:19;;;;;;;27.50;20.92;;;;;;;;;;5132314;27;20047;-76
2023/06/17 03:55:46;;;;;;;25.30;18.88;;;;;;;;;;5132426;27;20050;-76
2023/06/17 03:58:15;;;;;;;25.88;18.48;;;;;;;;;;5133933;27;20050;-76
2023/06/17 04:00:41;;;;;;;24.02;17.38;;;;;;;;;;5132309;27;20514;-74
2023/06/17 04:03:07;;;;;;;22.83;17.45;;;;;;;;;;5132197;27;20054;-76
2023/06/17 04:05:34;;;;;;;21.85;15.70;;;;;;;;;;5132887;27;20065;-76
2023/06/17 04:08:02;;;;;;;20.38;15.07;;;;;;;;;;5139329;27;20402;-76
2023/06/17 04:10:29;;;;;;;21.67;14.85;;;;;;;;;;5154197;27;20047;-76
2023/06/17 04:12:55;;;;;;;23.92;15.40;;;;;;;;;;5154027;27;20038;-76
2023/06/17 04:15:21;;;;;;;22.08;15.38;;;;;;;;;;5153070;27;20049;-76
2023/06/17 04:17:47;;;;;;;22.13;15.68;;;;;;;;;;5154169;27;20039;-77
2023/06/17 04:20:14;;;;;;;22.98;15.57;;;;;;;;;;5135507;27;20126;-75
2023/06/17 04:22:40;;;;;;;23.65;15.98;;;;;;;;;;5154073;27;20050;-75
2023/06/17 04:25:07;;;;;;;23.48;16.00;;;;;;;;;;5153935;27;20382;-76
2023/06/17 04:27:33;;;;;;;23.70;15.98;;;;;;;;;;5154440;27;20035;-75
2023/06/17 04:30:01;;;;;;;21.05;15.38;;;;;;;;;;5153852;27;20047;-75
2023/06/17 04:32:28;;;;;;;22.75;15.85;;;;;;;;;;5135823;27;20046;-75
2023/06/17 04:34:54;;;;;;;23.90;15.63;;;;;;;;;;5153879;27;20058;-75
2023/06/17 04:37:20;;;;;;;22.70;15.35;;;;;;;;;;5135664;27;20049;-75
2023/06/17 04:39:48;;;;;;;21.80;15.00;;;;;;;;;;5153708;27;20129;-75
2023/06/17 04:42:16;;;;;;;24.23;14.50;;;;;;;;;;5154129;27;20046;-75
2023/06/17 04:44:43;;;;;;;23.40;15.93;;;;;;;;;;5135533;27;20049;-75
2023/06/17 04:47:10;;;;;;;23.80;15.80;;;;;;;;;;5153926;27;20051;-75
2023/06/17 04:49:41;;;;;;;21.73;15.25;;;;;;;;;;5117604;27;20050;-75
2023/06/17 04:52:13;;;;;;;21.90;15.25;;;;;;;;;;5153447;27;20050;-75
2023/06/17 04:54:40;;;;;;;24.85;16.08;;;;;;;;;;5138751;27;20455;-75
2023/06/17 04:57:06;;;;;;;27.73;17.30;;;;;;;;;;5114673;28;20096;-75
2023/06/17 04:59:32;;;;;;;26.70;16.88;;;;;;;;;;5132864;28;20047;-75
2023/06/17 05:01:59;;;;;;;23.15;17.35;;;;;;;;;;5133022;28;20034;-75
2023/06/17 05:04:25;;;;;;;28.77;16.85;;;;;;;;;;5133070;27;20043;-75
2023/06/17 05:06:51;;;;;;;22.17;16.70;;;;;;;;;;5118904;27;20126;-75
2023/06/17 05:09:18;;;;;;;25.33;16.73;;;;;;;;;;5136934;27;20070;-76
2023/06/17 05:11:44;;;;;;;26.27;17.55;;;;;;;;;;5137125;27;20080;-75
2023/06/17 05:14:11;;;;;;;21.73;16.88;;;;;;;;;;5136905;27;20042;-75
2023/06/17 05:16:37;;;;;;;24.30;17.00;;;;;;;;;;5116979;27;20137;-76
2023/06/17 05:19:03;;;;;;;26.13;17.20;;;;;;;;;;5101769;27;20046;-75
2023/06/17 05:21:29;;;;;;;28.20;19.48;;;;;;;;;;5137048;27;20043;-75
2023/06/17 05:23:55;;;;;;;25.17;18.00;;;;;;;;;;5146448;27;20049;-76
2023/06/17 05:26:21;;;;;;;24.40;17.05;;;;;;;;;;5157510;27;20490;-76
2023/06/17 05:28:47;;;;;;;30.10;18.83;;;;;;;;;;5139126;27;20047;-76
2023/06/17 05:31:13;;;;;;;23.88;17.52;;;;;;;;;;5157302;27;20145;-74
2023/06/17 05:33:40;;;;;;;25.75;18.73;;;;;;;;;;5157530;27;20043;-74
2023/06/17 05:36:06;;;;;;;24.67;17.48;;;;;;;;;;5157452;27;20411;-74
2023/06/17 05:38:32;;;;;;;28.95;19.33;;;;;;;;;;5121537;27;20039;-74
2023/06/17 05:40:58;;;;;;;28.70;18.48;;;;;;;;;;5138465;27;20050;-75
2023/06/17 05:43:28;;;;;;;27.25;18.83;;;;;;;;;;5138401;27;20043;-75
2023/06/17 05:45:54;;;;;;;23.90;17.10;;;;;;;;;;5156765;27;20038;-74
2023/06/17 05:48:20;;;;;;;23.70;16.52;;;;;;;;;;5156951;27;20046;-75
2023/06/17 05:50:47;;;;;;;20.00;15.32;;;;;;;;;;5157058;27;20050;-75
2023/06/17 05:53:13;;;;;;;22.88;14.57;;;;;;;;;;5156841;27;20049;-75
2023/06/17 05:55:39;;;;;;;20.13;14.30;;;;;;;;;;5156920;27;20043;-74
2023/06/17 05:58:05;;;;;;;21.30;14.50;;;;;;;;;;5138594;27;20165;-74
2023/06/17 06:00:31;;;;;;;19.13;13.63;;;;;;;;;;5156515;27;20182;-75
2023/06/17 06:02:57;;;;;;;20.55;15.13;;;;;;;;;;5156501;27;20437;-75
2023/06/17 06:05:23;;;;;;;21.33;14.88;;;;;;;;;;5138243;27;20129;-75
2023/06/17 06:07:49;;;;;;;21.05;14.05;;;;;;;;;;5155273;27;20115;-75
2023/06/17 06:10:16;;;;;;;20.65;13.05;;;;;;;;;;5156403;27;20049;-75
2023/06/17 06:12:42;;;;;;;16.63;12.07;;;;;;;;;;5156875;27;20091;-75
2023/06/17 06:15:08;;;;;;;15.85;11.75;;;;;;;;;;5156343;27;20091;-75
2023/06/17 06:17:34;;;;;;;17.83;12.07;;;;;;;;;;5155397;27;20039;-75
2023/06/17 06:20:00;;;;;;;20.30;12.30;;;;;;;;;;5156299;27;20167;-75
2023/06/17 06:22:27;;;;;;;16.60;11.00;;;;;;;;;;5156826;27;20053;-75
2023/06/17 06:24:53;;;;;;;20.67;12.43;;;;;;;;;;5156072;27;20449;-75
2023/06/17 06:27:20;;;;;;;22.10;12.43;;;;;;;;;;5156581;27;20034;-75
2023/06/17 06:29:46;;;;;;;21.13;13.32;;;;;;;;;;5137767;27;20047;-76
2023/06/17 06:32:12;;;;;;;19.15;12.48;;;;;;;;;;5156322;27;20039;-76
2023/06/17 06:34:38;;;;;;;20.40;12.45;;;;;;;;;;5156348;27;20039;-76
2023/06/17 06:37:05;;;;;;;19.00;12.60;;;;;;;;;;5156377;27;20391;-76
2023/06/17 06:39:31;;;;;;;22.45;13.55;;;;;;;;;;5137574;27;20440;-76
2023/06/17 06:41:57;;;;;;;21.83;13.55;;;;;;;;;;5155926;27;20050;-76
2023/06/17 06:44:23;;;;;;;22.67;13.07;;;;;;;;;;5155918;27;20087;-76
2023/06/17 06:46:49;;;;;;;18.42;12.10;;;;;;;;;;5155876;27;20077;-76
2023/06/17 06:49:15;;;;;;;20.52;12.27;;;;;;;;;;5155729;27;20043;-76
2023/06/17 06:51:42;;;;;;;19.65;12.63;;;;;;;;;;5136206;27;20118;-76
2023/06/17 06:54:08;;;;;;;18.52;12.85;;;;;;;;;;5136106;27;20045;-76
2023/06/17 06:56:34;;;;;;;21.13;13.65;;;;;;;;;;5156084;27;20046;-75
2023/06/17 06:59:00;;;;;;;23.20;13.70;;;;;;;;;;5155600;27;20039;-76
2023/06/17 07:01:27;;;;;;;19.15;14.25;;;;;;;;;;5155698;27;20047;-75
2023/06/17 07:03:53;;;;;;;20.27;13.65;;;;;;;;;;5155578;27;20406;-75
2023/06/17 07:06:19;;;;;;;19.95;13.50;;;;;;;;;;5137138;27;20102;-75
2023/06/17 07:08:45;;;;;;;19.83;14.18;;;;;;;;;;5136713;27;20571;-75
2023/06/17 07:11:11;;;;;;;20.02;13.38;;;;;;;;;;5155458;27;20042;-75
2023/06/17 07:13:37;;;;;;;22.58;14.40;;;;;;;;;;5137061;27;20363;-75
2023/06/17 07:16:04;;;;;;;23.88;13.77;;;;;;;;;;5155146;27;20050;-75
2023/06/17 07:18:30;;;;;;;20.58;13.93;;;;;;;;;;5155285;27;20050;-75
2023/06/17 07:20:57;;;;;;;23.20;13.00;;;;;;;;;;5155367;27;20091;-74
2023/06/17 07:23:26;;;;;;;18.77;12.25;;;;;;;;;;5155133;27;20123;-76
2023/06/17 07:25:52;;;;;;;20.33;13.32;;;;;;;;;;5155182;27;20042;-75
2023/06/17 07:28:18;;;;;;;20.52;12.02;;;;;;;;;;5154337;27;20490;-75
2023/06/17 07:30:44;;;;;;;20.45;13.88;;;;;;;;;;5133980;27;20045;-77
2023/06/17 07:33:11;;;;;;;19.33;13.13;;;;;;;;;;5136476;27;20081;-75
2023/06/17 07:35:37;;;;;;;21.15;12.52;;;;;;;;;;5154949;27;20043;-76
2023/06/17 07:38:03;;;;;;;19.98;12.55;;;;;;;;;;5136584;27;20054;-75
2023/06/17 07:40:29;;;;;;;19.33;12.48;;;;;;;;;;5136106;27;20039;-76
2023/06/17 07:42:55;;;;;;;15.73;11.75;;;;;;;;;;5154501;27;20080;-76
2023/06/17 07:45:21;;;;;;;20.88;12.10;;;;;;;;;;5154647;27;20085;-76
2023/06/17 07:47:48;;;;;;;18.63;11.63;;;;;;;;;;5154454;27;20054;-76
2023/06/17 07:50:14;;;;;;;17.73;11.48;;;;;;;;;;5154492;27;20049;-76
2023/06/17 07:52:40;;;;;;;17.75;11.38;;;;;;;;;;5136193;27;20038;-76
2023/06/17 07:55:10;;;;;;;15.05;11.07;;;;;;;;;;5153774;27;20039;-76
2023/06/17 07:57:37;;;;;;;15.60;10.65;;;;;;;;;;5154815;27;20039;-77
2023/06/17 08:00:09;;;;;;;17.00;11.10;;;;;;;;;;5154018;27;20483;-76
2023/06/17 08:02:35;;;;;;;16.58;11.50;;;;;;;;;;5154342;27;20103;-76
2023/06/17 08:05:01;;;;;;;19.52;11.20;;;;;;;;;;5154032;27;20122;-76
2023/06/17 08:07:28;;;;;;;18.83;11.45;;;;;;;;;;5154469;27;20046;-74
2023/06/17 08:09:54;;;;;;;15.63;10.63;;;;;;;;;;5153899;27;20054;-75
2023/06/17 08:12:20;;;;;;;15.90;10.20;;;;;;;;;;5154186;27;20107;-76
2023/06/17 08:14:46;;;;;;;21.60;11.35;;;;;;;;;;5153895;27;20579;-76
2023/06/17 08:17:12;;;;;;;17.05;11.55;;;;;;;;;;5153922;27;20461;-76
2023/06/17 08:19:38;;;;;;;17.42;11.30;;;;;;;;;;5135705;27;20094;-75
2023/06/17 08:22:04;;;;;;;14.60;10.43;;;;;;;;;;5154223;27;20046;-76
2023/06/17 08:24:30;;;;;;;20.30;11.00;;;;;;;;;;5153921;27;20039;-75
2023/06/17 08:26:56;;;;;;;18.52;10.77;;;;;;;;;;5154260;27;20386;-75
2023/06/17 08:29:22;;;;;;;17.23;10.20;;;;;;;;;;5153592;27;20166;-75
2023/06/17 08:31:52;;;;;;;17.38;11.18;;;;;;;;;;5135235;27;20511;-75
2023/06/17 08:34:19;;;;;;;17.17;10.57;;;;;;;;;;5135502;27;20054;-75
2023/06/17 08:36:46;;;;;;;14.02;9.48;;;;;;;;;;5135691;27;20316;-75
2023/06/17 08:39:13;;;;;;;24.08;9.52;;;;;;;;;;5135031;27;20127;-75
2023/06/17 08:41:40;;;;;;;15.00;9.18;;;;;;;;;;5153391;27;20457;-75
2023/06/17 08:44:06;;;;;;;14.82;9.52;;;;;;;;;;5153054;27;20038;-75
2023/06/17 08:46:33;;;;;;;15.80;9.45;;;;;;;;;;5151798;27;20398;-75
2023/06/17 08:48:59;;;;;;;14.30;9.70;;;;;;;;;;5133958;27;20049;-75
2023/06/17 08:51:26;;;;;;;15.23;10.00;;;;;;;;;;5153652;27;20053;-76
2023/06/17 08:53:52;;;;;;;14.10;9.63;;;;;;;;;;5153147;27;20049;-75
2023/06/17 08:56:19;;;;;;;15.88;9.02;;;;;;;;;;5153171;27;20103;-75
2023/06/17 08:58:45;;;;;;;16.33;9.95;;;;;;;;;;5134670;27;20053;-75
2023/06/17 09:01:12;;;;;;;16.27;10.07;;;;;;;;;;5134820;27;20050;-76
2023/06/17 09:03:39;;;;;;;15.75;9.63;;;;;;;;;;5153721;27;20065;-75
2023/06/17 09:06:25;;;;;;;14.93;8.82;;;;;;;;;;5153660;27;20039;-76
2023/06/17 09:08:52;;;;;;;18.13;9.85;;;;;;;;;;5134714;27;20495;-75
2023/06/17 09:11:21;;;;;;;20.23;10.10;;;;;;;;;;5134826;27;20043;-75
2023/06/17 09:13:50;;;;;;;13.70;9.25;;;;;;;;;;5153514;27;20086;-75
2023/06/17 09:16:25;;;;;;;15.02;9.23;;;;;;;;;;5153556;27;20054;-76
2023/06/17 09:18:54;;;;;;;14.27;8.95;;;;;;;;;;5153038;27;20352;-76
2023/06/17 09:21:21;;;;;;;11.75;8.45;;;;;;;;;;5134655;27;20050;-75
2023/06/17 09:23:54;;;;;;;13.77;8.70;;;;;;;;;;5153223;27;20118;-75
2023/06/17 09:26:23;;;;;;;14.57;8.48;;;;;;;;;;5153180;27;20113;-76
2023/06/17 09:28:49;;;;;;;13.98;8.95;;;;;;;;;;5153157;27;20053;-76
2023/06/17 09:31:18;;;;;;;14.15;8.70;;;;;;;;;;5153061;27;20141;-76
2023/06/17 09:33:45;;;;;;;20.95;9.70;;;;;;;;;;5134725;27;20406;-76
2023/06/17 09:36:11;;;;;;;16.80;9.50;;;;;;;;;;5153367;27;20042;-76
2023/06/17 09:38:38;;;;;;;15.02;9.52;;;;;;;;;;5153108;27;20039;-77
2023/06/17 09:41:04;;;;;;;13.48;9.05;;;;;;;;;;5153052;27;20125;-77
2023/06/17 09:43:31;;;;;;;14.38;9.18;;;;;;;;;;5152894;27;20122;-76
2023/06/17 09:46:04;;;;;;;13.52;8.48;;;;;;;;;;5151410;27;20095;-76
2023/06/17 09:48:31;;;;;;;11.30;8.68;;;;;;;;;;5153012;27;20122;-76
2023/06/17 09:50:58;;;;;;;18.27;8.65;;;;;;;;;;5135087;27;20076;-76
2023/06/17 09:53:27;;;;;;;14.85;8.20;;;;;;;;;;5156591;27;20041;-76
2023/06/17 09:55:57;;;;;;;16.88;9.13;;;;;;;;;;5156554;27;20057;-76
2023/06/17 09:58:28;;;;;;;13.80;8.10;;;;;;;;;;5156817;27;20155;-76
2023/06/17 10:00:56;;;;;;;14.43;9.00;;;;;;;;;;5156296;27;20078;-76
2023/06/17 10:03:22;;;;;;;14.27;8.05;;;;;;;;;;5156577;27;20049;-77
2023/06/17 10:06:03;;;;;;;12.98;9.18;;;;;;;;;;5120539;27;20034;-76
2023/06/17 10:08:30;;;;;;;12.43;8.30;;;;;;;;;;5156398;27;20567;-76
2023/06/17 10:11:00;;;;;;;13.07;7.72;;;;;;;;;;5156617;27;20336;-76
2023/06/17 10:13:27;;;;;;;13.85;7.95;;;;;;;;;;5156485;27;20051;-76
2023/06/17 10:15:54;;;;;;;12.98;7.72;;;;;;;;;;5156462;27;20042;-76
2023/06/17 10:18:20;;;;;;;14.55;8.50;;;;;;;;;;5156374;27;20035;-77
2023/06/17 10:20:48;;;;;;;13.82;8.77;;;;;;;;;;5156337;27;20047;-77
2023/06/17 10:23:15;;;;;;;17.05;8.60;;;;;;;;;;5156000;27;20592;-77
2023/06/17 10:25:42;;;;;;;14.10;8.10;;;;;;;;;;5156256;27;20046;-75
2023/06/17 10:28:08;;;;;;;12.52;8.82;;;;;;;;;;5156739;27;20054;-76
2023/06/17 10:30:35;;;;;;;13.20;8.75;;;;;;;;;;5155791;27;20038;-76
2023/06/17 10:33:02;;;;;;;14.45;8.43;;;;;;;;;;5155790;27;20046;-76
2023/06/17 10:35:38;;;;;;;13.93;8.07;;;;;;;;;;5136129;27;20054;-75
2023/06/17 10:38:04;;;;;;;11.75;8.50;;;;;;;;;;5156004;27;20035;-76
2023/06/17 10:40:35;;;;;;;12.68;8.40;;;;;;;;;;5154320;27;20070;-77
2023/06/17 10:43:01;;;;;;;14.63;8.48;;;;;;;;;;5137008;27;20133;-76
2023/06/17 10:45:31;;;;;;;12.82;8.35;;;;;;;;;;5155687;27;20478;-76
2023/06/17 10:48:14;;;;;;;13.57;8.45;;;;;;;;;;5155668;27;20046;-77
2023/06/17 10:50:40;;;;;;;12.38;8.10;;;;;;;;;;5155397;27;20039;-76
2023/06/17 10:53:07;;;;;;;12.30;8.23;;;;;;;;;;5136795;27;20054;-76
2023/06/17 10:55:33;;;;;;;14.25;7.82;;;;;;;;;;5155551;27;20051;-76
2023/06/17 10:57:59;;;;;;;15.65;8.25;;;;;;;;;;5137081;27;20061;-76
2023/06/17 11:00:25;;;;;;;17.02;7.82;;;;;;;;;;5155487;27;20035;-76
2023/06/17 11:02:52;;;;;;;17.30;8.68;;;;;;;;;;5136670;27;20146;-76
2023/06/17 11:05:18;;;;;;;12.52;7.07;;;;;;;;;;5155352;27;20127;-76
2023/06/17 11:07:44;;;;;;;11.60;7.15;;;;;;;;;;5155761;27;20192;-77
2023/06/17 11:10:11;;;;;;;13.57;8.27;;;;;;;;;;5155301;27;20098;-76
2023/06/17 11:12:39;;;;;;;12.55;7.45;;;;;;;;;;5136785;27;20138;-76
2023/06/17 11:15:07;;;;;;;15.93;8.32;;;;;;;;;;5154589;27;20510;-76
2023/06/17 11:17:33;;;;;;;11.32;7.15;;;;;;;;;;5155177;27;20039;-77
2023/06/17 11:19:59;;;;;;;9.55;6.75;;;;;;;;;;5135373;27;20430;-77
2023/06/17 11:22:26;;;;;;;9.88;7.13;;;;;;;;;;5136162;27;20494;-77
2023/06/17 11:24:52;;;;;;;10.40;6.15;;;;;;;;;;5154924;27;20100;-77
2023/06/17 11:27:18;;;;;;;9.30;5.75;;;;;;;;;;5136804;27;20042;-77
2023/06/17 11:29:45;;;;;;;9.55;5.78;;;;;;;;;;5154763;27;20042;-77
2023/06/17 11:32:11;;;;;;;8.93;5.30;;;;;;;;;;5136594;27;20339;-78
2023/06/17 11:34:37;;;;;;;9.57;5.22;;;;;;;;;;5154698;27;20526;-78
2023/06/17 11:37:06;;;;;;;10.25;4.95;;;;;;;;;;5119133;27;20047;-78
2023/06/17 11:39:32;;;;;;;8.35;4.72;;;;;;;;;;5154430;27;20038;-78
2023/06/17 11:42:01;;;;;;;9.45;5.90;;;;;;;;;;5154763;27;20064;-77
2023/06/17 11:44:27;;;;;;;8.88;4.55;;;;;;;;;;5154680;27;20046;-77
2023/06/17 11:46:56;;;;;;;9.00;5.03;;;;;;;;;;5154570;27;20125;-77
2023/06/17 11:49:27;;;;;;;8.48;4.45;;;;;;;;;;5154330;27;20348;-77
2023/06/17 11:51:54;;;;;;;11.27;5.18;;;;;;;;;;5154693;27;20438;-77
2023/06/17 11:54:20;;;;;;;8.52;4.90;;;;;;;;;;5123720;27;20095;-77
2023/06/17 11:56:49;;;;;;;9.43;5.00;;;;;;;;;;5133407;27;20066;-77
2023/06/17 11:59:20;;;;;;;7.00;4.30;;;;;;;;;;5133344;27;20379;-77
2023/06/17 12:01:46;;;;;;;7.93;4.65;;;;;;;;;;5133650;27;20070;-77
2023/06/17 12:04:14;;;;;;;7.75;4.60;;;;;;;;;;5133843;27;20043;-77
2023/06/17 12:06:43;;;;;;;9.05;4.95;;;;;;;;;;5133740;27;20049;-77
2023/06/17 12:09:10;;;;;;;9.15;4.57;;;;;;;;;;5132997;27;20047;-77
2023/06/17 12:11:41;;;;;;;8.45;4.80;;;;;;;;;;5133597;27;20055;-76
2023/06/17 12:14:08;;;;;;;10.55;4.60;;;;;;;;;;5132814;27;20043;-77
2023/06/17 12:16:35;;;;;;;9.50;4.97;;;;;;;;;;5133095;27;20047;-77
2023/06/17 12:19:04;;;;;;;8.38;4.95;;;;;;;;;;5132066;27;20031;-77
2023/06/17 12:21:30;;;;;;;8.48;5.18;;;;;;;;;;5132335;27;20126;-77
2023/06/17 12:23:57;;;;;;;8.23;4.95;;;;;;;;;;5142929;27;20034;-77
2023/06/17 12:26:24;;;;;;;8.00;4.85;;;;;;;;;;5154117;27;20440;-77
2023/06/17 12:28:50;;;;;;;9.32;5.18;;;;;;;;;;5154034;27;20448;-77
2023/06/17 12:31:19;;;;;;;9.38;5.07;;;;;;;;;;5135151;27;20038;-78
2023/06/17 12:33:48;;;;;;;10.52;5.72;;;;;;;;;;5135357;27;20490;-77
2023/06/17 12:36:16;;;;;;;8.57;5.35;;;;;;;;;;5135229;27;20038;-78
2023/06/17 12:38:42;;;;;;;11.38;5.68;;;;;;;;;;5118154;27;20052;-77
2023/06/17 12:41:10;;;;;;;8.52;4.82;;;;;;;;;;5153972;27;20058;-78
2023/06/17 12:43:36;;;;;;;9.38;5.10;;;;;;;;;;5135156;27;20057;-78
2023/06/17 12:46:04;;;;;;;9.38;5.25;;;;;;;;;;5135221;27;20554;-77
2023/06/17 12:48:30;;;;;;;9.98;5.97;;;;;;;;;;5152326;27;20050;-78
2023/06/17 12:50:57;;;;;;;9.63;5.82;;;;;;;;;;5134906;27;20049;-78
2023/06/17 12:53:23;;;;;;;11.52;5.82;;;;;;;;;;5134953;27;20121;-78
2023/06/17 12:55:51;;;;;;;11.45;5.88;;;;;;;;;;5153548;27;20043;-77
2023/06/17 12:58:17;;;;;;;11.95;6.28;;;;;;;;;;5153940;27;20057;-77
2023/06/17 13:00:43;;;;;;;12.70;6.70;;;;;;;;;;5153125;27;20083;-78
2023/06/17 13:03:09;;;;;;;12.15;6.60;;;;;;;;;;5135054;27;20046;-77
2023/06/17 13:05:35;;;;;;;10.52;6.03;;;;;;;;;;5134977;27;20138;-77
2023/06/17 13:08:02;;;;;;;10.75;5.97;;;;;;;;;;5153263;27;20091;-78
2023/06/17 13:10:28;;;;;;;10.32;6.20;;;;;;;;;;5153356;27;20050;-78
2023/06/17 13:12:55;;;;;;;10.90;6.40;;;;;;;;;;5134966;27;20050;-78
2023/06/17 13:15:21;;;;;;;13.43;6.38;;;;;;;;;;5153220;27;20039;-77
2023/06/17 13:17:47;;;;;;;10.55;6.22;;;;;;;;;;5153909;27;20561;-77
2023/06/17 13:20:13;;;;;;;10.45;6.40;;;;;;;;;;5153020;27;20042;-77
2023/06/17 13:22:39;;;;;;;12.15;6.53;;;;;;;;;;5152613;27;20046;-77
2023/06/17 13:25:06;;;;;;;15.23;6.90;;;;;;;;;;5133726;27;20035;-77
2023/06/17 13:27:32;;;;;;;12.63;6.28;;;;;;;;;;5157158;27;20049;-77
2023/06/17 13:29:58;;;;;;;9.85;5.90;;;;;;;;;;5156930;27;20099;-77
2023/06/17 13:32:25;;;;;;;10.10;5.95;;;;;;;;;;5157600;27;20041;-77
2023/06/17 13:34:52;;;;;;;11.23;5.75;;;;;;;;;;5157224;27;20043;-76
2023/06/17 13:37:18;;;;;;;12.00;6.55;;;;;;;;;;5121597;27;20066;-77
2023/06/17 13:39:44;;;;;;;11.77;6.88;;;;;;;;;;5156722;27;20051;-77
2023/06/17 13:42:11;;;;;;;10.45;6.35;;;;;;;;;;5157071;27;20384;-77
2023/06/17 13:44:37;;;;;;;11.85;6.43;;;;;;;;;;5138306;27;20394;-76
2023/06/17 13:47:04;;;;;;;12.00;6.82;;;;;;;;;;5137890;27;20090;-77
2023/06/17 13:49:31;;;;;;;11.98;6.38;;;;;;;;;;5156066;27;20077;-77
2023/06/17 13:51:58;;;;;;;8.98;6.45;;;;;;;;;;5155677;27;20130;-77
2023/06/17 13:54:26;;;;;;;13.32;6.32;;;;;;;;;;5156568;27;20384;-78
2023/06/17 13:56:53;;;;;;;11.13;6.50;;;;;;;;;;5156585;27;20095;-77
2023/06/17 13:59:19;;;;;;;12.82;6.55;;;;;;;;;;5137896;27;20043;-78
2023/06/17 14:01:46;;;;;;;10.38;6.50;;;;;;;;;;5155309;27;20394;-77
2023/06/17 14:04:12;;;;;;;10.18;5.80;;;;;;;;;;5138028;27;20039;-77
2023/06/17 14:06:38;;;;;;;10.85;6.00;;;;;;;;;;5156384;27;20042;-78
2023/06/17 14:09:06;;;;;;;10.10;5.82;;;;;;;;;;5156168;27;20053;-77
2023/06/17 14:11:33;;;;;;;11.43;6.70;;;;;;;;;;5156061;27;20051;-77
2023/06/17 14:14:00;;;;;;;11.30;6.07;;;;;;;;;;5137812;27;20039;-78
2023/06/17 14:16:26;;;;;;;10.82;5.78;;;;;;;;;;5137440;27;20051;-77
2023/06/17 14:18:52;;;;;;;10.88;5.75;;;;;;;;;;5156079;27;20087;-78
2023/06/17 14:21:23;;;;;;;13.15;6.07;;;;;;;;;;5156357;27;20074;-77